sensor_id;sensor_type;location;lat;lon;timestamp;P1;durP1;ratioP1;P2;durP2;ratioP2
59418;SDS011;45224;50.904;6.038;2023-07-31T00:01:00;11.15;;;2.30;;
59418;SDS011;45224;50.904;6.038;2023-07-31T00:02:30;4.97;;;2.22;;
59418;SDS011;45224;50.904;6.038;2023-07-31T00:04:01;8.48;;;2.33;;
59418;SDS011;45224;50.904;6.038;2023-07-31T00:05:31;5.70;;;2.30;;
59418;SDS011;45224;50.904;6.038;2023-07-31T00:07:02;6.28;;;2.03;;
59418;SDS011;45224;50.904;6.038;2023-07-31T00:08:34;5.47;;;2.25;;
59418;SDS011;45224;50.904;6.038;2023-07-31T00:10:04;7.82;;;2.47;;
59418;SDS011;45224;50.904;6.038;2023-07-31T00:11:36;5.90;;;2.40;;
59418;SDS011;45224;50.904;6.038;2023-07-31T00:13:06;8.00;;;2.25;;
59418;SDS011;45224;50.904;6.038;2023-07-31T00:14:37;5.93;;;2.33;;
59418;SDS011;45224;50.904;6.038;2023-07-31T00:16:07;4.50;;;2.08;;
59418;SDS011;45224;50.904;6.038;2023-07-31T00:17:38;5.45;;;2.08;;
59418;SDS011;45224;50.904;6.038;2023-07-31T00:19:08;8.73;;;2.35;;
59418;SDS011;45224;50.904;6.038;2023-07-31T00:20:42;9.65;;;2.47;;
59418;SDS011;45224;50.904;6.038;2023-07-31T00:22:12;8.90;;;2.25;;
59418;SDS011;45224;50.904;6.038;2023-07-31T00:23:43;6.55;;;2.42;;
59418;SDS011;45224;50.904;6.038;2023-07-31T00:25:13;8.05;;;2.33;;
59418;SDS011;45224;50.904;6.038;2023-07-31T00:26:43;5.80;;;2.15;;
59418;SDS011;45224;50.904;6.038;2023-07-31T00:28:14;8.10;;;2.42;;
59418;SDS011;45224;50.904;6.038;2023-07-31T00:29:44;7.60;;;2.65;;
59418;SDS011;45224;50.904;6.038;2023-07-31T00:31:15;8.45;;;1.90;;
59418;SDS011;45224;50.904;6.038;2023-07-31T00:32:45;7.53;;;2.50;;
59418;SDS011;45224;50.904;6.038;2023-07-31T00:34:16;9.20;;;2.60;;
59418;SDS011;45224;50.904;6.038;2023-07-31T00:35:48;7.13;;;2.08;;
59418;SDS011;45224;50.904;6.038;2023-07-31T00:37:18;5.85;;;2.25;;
59418;SDS011;45224;50.904;6.038;2023-07-31T00:38:49;6.30;;;2.45;;
59418;SDS011;45224;50.904;6.038;2023-07-31T00:40:19;6.47;;;2.13;;
59418;SDS011;45224;50.904;6.038;2023-07-31T00:41:50;5.50;;;2.03;;
59418;SDS011;45224;50.904;6.038;2023-07-31T00:43:21;6.63;;;2.42;;
59418;SDS011;45224;50.904;6.038;2023-07-31T00:44:52;9.65;;;2.63;;
59418;SDS011;45224;50.904;6.038;2023-07-31T00:46:23;6.68;;;2.55;;
59418;SDS011;45224;50.904;6.038;2023-07-31T00:47:54;6.28;;;2.30;;
59418;SDS011;45224;50.904;6.038;2023-07-31T00:49:24;6.97;;;2.35;;
59418;SDS011;45224;50.904;6.038;2023-07-31T00:50:55;7.97;;;2.13;;
59418;SDS011;45224;50.904;6.038;2023-07-31T00:52:26;4.88;;;2.13;;
59418;SDS011;45224;50.904;6.038;2023-07-31T00:53:56;7.15;;;2.40;;
59418;SDS011;45224;50.904;6.038;2023-07-31T00:55:28;5.35;;;2.00;;
59418;SDS011;45224;50.904;6.038;2023-07-31T00:56:59;6.60;;;2.55;;
59418;SDS011;45224;50.904;6.038;2023-07-31T00:58:32;4.57;;;2.15;;
59418;SDS011;45224;50.904;6.038;2023-07-31T01:00:03;5.90;;;2.20;;
59418;SDS011;45224;50.904;6.038;2023-07-31T01:01:33;5.72;;;2.10;;
59418;SDS011;45224;50.904;6.038;2023-07-31T01:03:04;5.40;;;1.80;;
59418;SDS011;45224;50.904;6.038;2023-07-31T01:04:34;6.53;;;2.67;;
59418;SDS011;45224;50.904;6.038;2023-07-31T01:07:07;7.85;;;2.20;;
59418;SDS011;45224;50.904;6.038;2023-07-31T01:10:13;9.55;;;2.15;;
59418;SDS011;45224;50.904;6.038;2023-07-31T01:11:52;9.60;;;2.10;;
59418;SDS011;45224;50.904;6.038;2023-07-31T01:13:26;5.47;;;2.05;;
59418;SDS011;45224;50.904;6.038;2023-07-31T01:15:05;7.65;;;2.25;;
59418;SDS011;45224;50.904;6.038;2023-07-31T01:16:38;8.50;;;2.50;;
59418;SDS011;45224;50.904;6.038;2023-07-31T01:18:09;5.68;;;2.00;;
59418;SDS011;45224;50.904;6.038;2023-07-31T01:19:40;6.32;;;2.53;;
59418;SDS011;45224;50.904;6.038;2023-07-31T01:26:45;6.40;;;2.33;;
59418;SDS011;45224;50.904;6.038;2023-07-31T01:28:23;7.82;;;2.45;;
59418;SDS011;45224;50.904;6.038;2023-07-31T01:30:17;3.03;;;2.10;;
59418;SDS011;45224;50.904;6.038;2023-07-31T01:31:55;6.03;;;2.20;;
59418;SDS011;45224;50.904;6.038;2023-07-31T01:33:28;7.72;;;2.30;;
59418;SDS011;45224;50.904;6.038;2023-07-31T01:34:58;6.38;;;2.50;;
59418;SDS011;45224;50.904;6.038;2023-07-31T01:36:30;5.50;;;2.22;;
59418;SDS011;45224;50.904;6.038;2023-07-31T01:38:01;5.70;;;2.30;;
59418;SDS011;45224;50.904;6.038;2023-07-31T01:39:32;7.15;;;2.55;;
59418;SDS011;45224;50.904;6.038;2023-07-31T01:41:02;6.75;;;2.65;;
59418;SDS011;45224;50.904;6.038;2023-07-31T01:42:33;6.43;;;2.60;;
59418;SDS011;45224;50.904;6.038;2023-07-31T01:44:03;9.60;;;2.40;;
59418;SDS011;45224;50.904;6.038;2023-07-31T01:45:34;5.63;;;2.35;;
59418;SDS011;45224;50.904;6.038;2023-07-31T01:47:05;6.32;;;2.55;;
59418;SDS011;45224;50.904;6.038;2023-07-31T01:48:36;6.75;;;2.20;;
59418;SDS011;45224;50.904;6.038;2023-07-31T01:50:07;5.72;;;2.13;;
59418;SDS011;45224;50.904;6.038;2023-07-31T01:51:38;7.53;;;2.17;;
59418;SDS011;45224;50.904;6.038;2023-07-31T01:53:08;7.80;;;2.40;;
59418;SDS011;45224;50.904;6.038;2023-07-31T01:54:39;8.90;;;2.33;;
59418;SDS011;45224;50.904;6.038;2023-07-31T01:56:09;7.55;;;2.47;;
59418;SDS011;45224;50.904;6.038;2023-07-31T01:57:40;6.97;;;2.45;;
59418;SDS011;45224;50.904;6.038;2023-07-31T01:59:10;6.57;;;2.33;;
59418;SDS011;45224;50.904;6.038;2023-07-31T02:00:41;7.70;;;2.42;;
59418;SDS011;45224;50.904;6.038;2023-07-31T02:02:11;9.68;;;2.50;;
59418;SDS011;45224;50.904;6.038;2023-07-31T02:03:43;6.75;;;2.75;;
59418;SDS011;45224;50.904;6.038;2023-07-31T02:05:13;8.27;;;2.72;;
59418;SDS011;45224;50.904;6.038;2023-07-31T02:06:44;8.32;;;2.47;;
59418;SDS011;45224;50.904;6.038;2023-07-31T02:08:14;5.55;;;2.50;;
59418;SDS011;45224;50.904;6.038;2023-07-31T02:09:45;6.85;;;2.60;;
59418;SDS011;45224;50.904;6.038;2023-07-31T02:11:18;7.47;;;2.42;;
59418;SDS011;45224;50.904;6.038;2023-07-31T02:12:48;10.30;;;2.78;;
59418;SDS011;45224;50.904;6.038;2023-07-31T02:14:18;6.45;;;2.30;;
59418;SDS011;45224;50.904;6.038;2023-07-31T02:15:49;11.98;;;3.08;;
59418;SDS011;45224;50.904;6.038;2023-07-31T02:17:22;8.85;;;2.63;;
59418;SDS011;45224;50.904;6.038;2023-07-31T02:18:53;4.68;;;2.25;;
59418;SDS011;45224;50.904;6.038;2023-07-31T02:20:23;8.10;;;2.50;;
59418;SDS011;45224;50.904;6.038;2023-07-31T02:21:54;8.48;;;2.53;;
59418;SDS011;45224;50.904;6.038;2023-07-31T02:23:26;7.38;;;2.65;;
59418;SDS011;45224;50.904;6.038;2023-07-31T02:24:57;7.68;;;2.83;;
59418;SDS011;45224;50.904;6.038;2023-07-31T02:26:27;8.85;;;2.55;;
59418;SDS011;45224;50.904;6.038;2023-07-31T02:27:58;4.93;;;2.40;;
59418;SDS011;45224;50.904;6.038;2023-07-31T02:29:29;8.35;;;2.70;;
59418;SDS011;45224;50.904;6.038;2023-07-31T02:31:00;8.00;;;2.28;;
59418;SDS011;45224;50.904;6.038;2023-07-31T02:32:30;6.65;;;2.47;;
59418;SDS011;45224;50.904;6.038;2023-07-31T02:34:01;8.32;;;2.58;;
59418;SDS011;45224;50.904;6.038;2023-07-31T02:35:31;6.57;;;2.45;;
59418;SDS011;45224;50.904;6.038;2023-07-31T02:37:02;13.13;;;3.00;;
59418;SDS011;45224;50.904;6.038;2023-07-31T02:38:32;9.00;;;2.70;;
59418;SDS011;45224;50.904;6.038;2023-07-31T02:40:03;8.05;;;2.80;;
59418;SDS011;45224;50.904;6.038;2023-07-31T02:41:33;7.53;;;2.67;;
59418;SDS011;45224;50.904;6.038;2023-07-31T02:43:04;6.07;;;2.45;;
59418;SDS011;45224;50.904;6.038;2023-07-31T02:44:35;5.68;;;2.63;;
59418;SDS011;45224;50.904;6.038;2023-07-31T02:46:06;8.00;;;2.65;;
59418;SDS011;45224;50.904;6.038;2023-07-31T02:47:36;7.80;;;2.60;;
59418;SDS011;45224;50.904;6.038;2023-07-31T02:49:06;9.20;;;2.67;;
59418;SDS011;45224;50.904;6.038;2023-07-31T02:50:37;7.07;;;2.72;;
59418;SDS011;45224;50.904;6.038;2023-07-31T02:52:07;6.50;;;2.35;;
59418;SDS011;45224;50.904;6.038;2023-07-31T02:53:38;8.00;;;2.90;;
59418;SDS011;45224;50.904;6.038;2023-07-31T02:55:08;9.27;;;2.40;;
59418;SDS011;45224;50.904;6.038;2023-07-31T02:56:39;6.00;;;2.35;;
59418;SDS011;45224;50.904;6.038;2023-07-31T02:58:09;10.00;;;2.63;;
59418;SDS011;45224;50.904;6.038;2023-07-31T02:59:40;8.25;;;3.38;;
59418;SDS011;45224;50.904;6.038;2023-07-31T03:01:10;8.88;;;3.05;;
59418;SDS011;45224;50.904;6.038;2023-07-31T03:02:41;9.60;;;3.03;;
59418;SDS011;45224;50.904;6.038;2023-07-31T03:04:12;7.18;;;2.83;;
59418;SDS011;45224;50.904;6.038;2023-07-31T03:05:42;6.35;;;2.88;;
59418;SDS011;45224;50.904;6.038;2023-07-31T03:07:12;8.18;;;2.67;;
59418;SDS011;45224;50.904;6.038;2023-07-31T03:08:43;9.38;;;3.13;;
59418;SDS011;45224;50.904;6.038;2023-07-31T03:10:14;6.18;;;2.90;;
59418;SDS011;45224;50.904;6.038;2023-07-31T03:11:45;6.60;;;2.90;;
59418;SDS011;45224;50.904;6.038;2023-07-31T03:13:15;6.10;;;2.88;;
59418;SDS011;45224;50.904;6.038;2023-07-31T03:14:46;7.40;;;3.03;;
59418;SDS011;45224;50.904;6.038;2023-07-31T03:16:16;5.65;;;3.17;;
59418;SDS011;45224;50.904;6.038;2023-07-31T03:17:47;8.30;;;3.15;;
59418;SDS011;45224;50.904;6.038;2023-07-31T03:19:17;6.72;;;2.72;;
59418;SDS011;45224;50.904;6.038;2023-07-31T03:20:48;9.73;;;2.65;;
59418;SDS011;45224;50.904;6.038;2023-07-31T03:22:20;6.90;;;2.90;;
59418;SDS011;45224;50.904;6.038;2023-07-31T03:23:50;7.47;;;2.92;;
59418;SDS011;45224;50.904;6.038;2023-07-31T03:25:21;6.03;;;3.08;;
59418;SDS011;45224;50.904;6.038;2023-07-31T03:26:51;5.03;;;2.45;;
59418;SDS011;45224;50.904;6.038;2023-07-31T03:28:22;8.55;;;3.03;;
59418;SDS011;45224;50.904;6.038;2023-07-31T03:29:52;6.40;;;2.75;;
59418;SDS011;45224;50.904;6.038;2023-07-31T03:31:23;9.50;;;2.58;;
59418;SDS011;45224;50.904;6.038;2023-07-31T03:32:54;6.65;;;3.05;;
59418;SDS011;45224;50.904;6.038;2023-07-31T03:34:24;7.07;;;3.05;;
59418;SDS011;45224;50.904;6.038;2023-07-31T03:35:55;11.93;;;3.10;;
59418;SDS011;45224;50.904;6.038;2023-07-31T03:37:25;6.75;;;3.13;;
59418;SDS011;45224;50.904;6.038;2023-07-31T03:38:57;5.70;;;2.90;;
59418;SDS011;45224;50.904;6.038;2023-07-31T03:40:27;8.60;;;2.70;;
59418;SDS011;45224;50.904;6.038;2023-07-31T03:41:58;6.50;;;2.70;;
59418;SDS011;45224;50.904;6.038;2023-07-31T03:43:28;5.68;;;2.80;;
59418;SDS011;45224;50.904;6.038;2023-07-31T03:44:59;7.13;;;3.08;;
59418;SDS011;45224;50.904;6.038;2023-07-31T03:46:30;7.85;;;2.60;;
59418;SDS011;45224;50.904;6.038;2023-07-31T03:48:01;6.30;;;2.80;;
59418;SDS011;45224;50.904;6.038;2023-07-31T03:49:31;5.63;;;2.40;;
59418;SDS011;45224;50.904;6.038;2023-07-31T03:51:02;5.30;;;2.65;;
59418;SDS011;45224;50.904;6.038;2023-07-31T03:52:32;8.68;;;3.03;;
59418;SDS011;45224;50.904;6.038;2023-07-31T03:54:03;6.82;;;2.90;;
59418;SDS011;45224;50.904;6.038;2023-07-31T03:55:33;6.63;;;2.83;;
59418;SDS011;45224;50.904;6.038;2023-07-31T03:57:04;7.00;;;2.88;;
59418;SDS011;45224;50.904;6.038;2023-07-31T03:58:34;4.80;;;2.55;;
59418;SDS011;45224;50.904;6.038;2023-07-31T04:00:06;5.15;;;2.97;;
59418;SDS011;45224;50.904;6.038;2023-07-31T04:01:42;4.68;;;2.45;;
59418;SDS011;45224;50.904;6.038;2023-07-31T04:03:12;6.93;;;2.97;;
59418;SDS011;45224;50.904;6.038;2023-07-31T04:04:43;8.10;;;3.03;;
59418;SDS011;45224;50.904;6.038;2023-07-31T04:06:13;6.93;;;2.97;;
59418;SDS011;45224;50.904;6.038;2023-07-31T04:07:48;4.30;;;2.50;;
59418;SDS011;45224;50.904;6.038;2023-07-31T04:09:18;5.45;;;2.80;;
59418;SDS011;45224;50.904;6.038;2023-07-31T04:10:49;6.30;;;2.67;;
59418;SDS011;45224;50.904;6.038;2023-07-31T04:12:20;5.80;;;2.80;;
59418;SDS011;45224;50.904;6.038;2023-07-31T04:13:51;6.10;;;2.85;;
59418;SDS011;45224;50.904;6.038;2023-07-31T04:15:21;5.70;;;2.47;;
59418;SDS011;45224;50.904;6.038;2023-07-31T04:16:51;7.53;;;2.85;;
59418;SDS011;45224;50.904;6.038;2023-07-31T04:18:24;4.43;;;2.40;;
59418;SDS011;45224;50.904;6.038;2023-07-31T04:19:56;4.15;;;2.30;;
59418;SDS011;45224;50.904;6.038;2023-07-31T04:21:26;6.25;;;2.80;;
59418;SDS011;45224;50.904;6.038;2023-07-31T04:22:57;4.68;;;2.70;;
59418;SDS011;45224;50.904;6.038;2023-07-31T04:24:27;4.43;;;2.65;;
59418;SDS011;45224;50.904;6.038;2023-07-31T04:25:57;8.68;;;2.55;;
59418;SDS011;45224;50.904;6.038;2023-07-31T04:27:28;6.90;;;2.72;;
59418;SDS011;45224;50.904;6.038;2023-07-31T04:28:58;6.13;;;2.83;;
59418;SDS011;45224;50.904;6.038;2023-07-31T04:30:29;4.13;;;2.53;;
59418;SDS011;45224;50.904;6.038;2023-07-31T04:31:59;8.88;;;2.67;;
59418;SDS011;45224;50.904;6.038;2023-07-31T04:33:30;6.32;;;2.72;;
59418;SDS011;45224;50.904;6.038;2023-07-31T04:35:01;6.97;;;2.38;;
59418;SDS011;45224;50.904;6.038;2023-07-31T04:36:32;8.48;;;2.85;;
59418;SDS011;45224;50.904;6.038;2023-07-31T04:38:03;6.35;;;2.83;;
59418;SDS011;45224;50.904;6.038;2023-07-31T04:39:34;8.18;;;3.20;;
59418;SDS011;45224;50.904;6.038;2023-07-31T04:41:04;8.30;;;2.65;;
59418;SDS011;45224;50.904;6.038;2023-07-31T04:42:35;4.32;;;2.63;;
59418;SDS011;45224;50.904;6.038;2023-07-31T04:44:06;5.57;;;2.53;;
59418;SDS011;45224;50.904;6.038;2023-07-31T04:45:36;7.63;;;2.30;;
59418;SDS011;45224;50.904;6.038;2023-07-31T04:47:07;6.80;;;2.70;;
59418;SDS011;45224;50.904;6.038;2023-07-31T04:48:37;4.47;;;2.75;;
59418;SDS011;45224;50.904;6.038;2023-07-31T04:50:08;5.75;;;2.28;;
59418;SDS011;45224;50.904;6.038;2023-07-31T04:51:39;5.45;;;2.50;;
59418;SDS011;45224;50.904;6.038;2023-07-31T04:53:09;5.80;;;2.25;;
59418;SDS011;45224;50.904;6.038;2023-07-31T04:54:39;5.05;;;2.45;;
59418;SDS011;45224;50.904;6.038;2023-07-31T04:56:10;5.65;;;2.40;;
59418;SDS011;45224;50.904;6.038;2023-07-31T04:57:40;4.00;;;2.30;;
59418;SDS011;45224;50.904;6.038;2023-07-31T04:59:11;6.00;;;2.40;;
59418;SDS011;45224;50.904;6.038;2023-07-31T05:00:41;6.28;;;2.45;;
59418;SDS011;45224;50.904;6.038;2023-07-31T05:02:12;6.10;;;2.42;;
59418;SDS011;45224;50.904;6.038;2023-07-31T05:03:43;4.57;;;2.28;;
59418;SDS011;45224;50.904;6.038;2023-07-31T05:05:13;5.75;;;2.28;;
59418;SDS011;45224;50.904;6.038;2023-07-31T05:06:44;5.97;;;2.20;;
59418;SDS011;45224;50.904;6.038;2023-07-31T05:08:14;4.40;;;2.35;;
59418;SDS011;45224;50.904;6.038;2023-07-31T05:09:47;6.28;;;2.40;;
59418;SDS011;45224;50.904;6.038;2023-07-31T05:11:18;3.95;;;2.33;;
59418;SDS011;45224;50.904;6.038;2023-07-31T05:12:48;6.28;;;2.22;;
59418;SDS011;45224;50.904;6.038;2023-07-31T05:14:19;4.43;;;2.22;;
59418;SDS011;45224;50.904;6.038;2023-07-31T05:15:50;5.10;;;2.15;;
59418;SDS011;45224;50.904;6.038;2023-07-31T05:17:20;7.32;;;2.28;;
59418;SDS011;45224;50.904;6.038;2023-07-31T05:18:51;4.78;;;1.98;;
59418;SDS011;45224;50.904;6.038;2023-07-31T05:20:21;5.53;;;2.30;;
59418;SDS011;45224;50.904;6.038;2023-07-31T05:21:52;4.05;;;2.20;;
59418;SDS011;45224;50.904;6.038;2023-07-31T05:23:22;5.25;;;2.13;;
59418;SDS011;45224;50.904;6.038;2023-07-31T05:24:53;3.63;;;2.00;;
59418;SDS011;45224;50.904;6.038;2023-07-31T05:26:24;5.35;;;2.50;;
59418;SDS011;45224;50.904;6.038;2023-07-31T05:27:54;6.65;;;2.72;;
59418;SDS011;45224;50.904;6.038;2023-07-31T05:29:25;4.45;;;2.10;;
59418;SDS011;45224;50.904;6.038;2023-07-31T05:30:59;4.47;;;2.30;;
59418;SDS011;45224;50.904;6.038;2023-07-31T05:32:30;3.97;;;2.28;;
59418;SDS011;45224;50.904;6.038;2023-07-31T05:34:01;5.75;;;2.30;;
59418;SDS011;45224;50.904;6.038;2023-07-31T05:35:31;7.43;;;2.67;;
59418;SDS011;45224;50.904;6.038;2023-07-31T05:37:02;7.30;;;2.30;;
59418;SDS011;45224;50.904;6.038;2023-07-31T05:38:33;4.38;;;2.00;;
59418;SDS011;45224;50.904;6.038;2023-07-31T05:40:03;4.40;;;2.08;;
59418;SDS011;45224;50.904;6.038;2023-07-31T05:41:35;6.90;;;2.55;;
59418;SDS011;45224;50.904;6.038;2023-07-31T05:43:05;5.20;;;2.33;;
59418;SDS011;45224;50.904;6.038;2023-07-31T05:44:38;7.53;;;2.67;;
59418;SDS011;45224;50.904;6.038;2023-07-31T05:46:09;4.95;;;2.00;;
59418;SDS011;45224;50.904;6.038;2023-07-31T05:47:39;5.25;;;2.20;;
59418;SDS011;45224;50.904;6.038;2023-07-31T05:49:10;5.13;;;2.20;;
59418;SDS011;45224;50.904;6.038;2023-07-31T05:50:40;5.05;;;2.38;;
59418;SDS011;45224;50.904;6.038;2023-07-31T05:52:11;6.15;;;2.50;;
59418;SDS011;45224;50.904;6.038;2023-07-31T05:53:41;6.32;;;2.50;;
59418;SDS011;45224;50.904;6.038;2023-07-31T05:55:12;5.15;;;2.20;;
59418;SDS011;45224;50.904;6.038;2023-07-31T05:56:42;5.93;;;2.47;;
59418;SDS011;45224;50.904;6.038;2023-07-31T05:58:13;6.07;;;2.30;;
59418;SDS011;45224;50.904;6.038;2023-07-31T05:59:43;4.75;;;2.20;;
59418;SDS011;45224;50.904;6.038;2023-07-31T06:01:15;5.28;;;2.13;;
59418;SDS011;45224;50.904;6.038;2023-07-31T06:02:45;5.38;;;2.33;;
59418;SDS011;45224;50.904;6.038;2023-07-31T06:04:17;4.55;;;1.92;;
59418;SDS011;45224;50.904;6.038;2023-07-31T06:05:47;6.00;;;1.98;;
59418;SDS011;45224;50.904;6.038;2023-07-31T06:07:18;5.13;;;2.08;;
59418;SDS011;45224;50.904;6.038;2023-07-31T06:08:49;4.80;;;2.17;;
59418;SDS011;45224;50.904;6.038;2023-07-31T06:10:20;4.07;;;1.95;;
59418;SDS011;45224;50.904;6.038;2023-07-31T06:11:50;4.07;;;1.92;;
59418;SDS011;45224;50.904;6.038;2023-07-31T06:13:21;6.13;;;2.17;;
59418;SDS011;45224;50.904;6.038;2023-07-31T06:14:51;4.38;;;2.55;;
59418;SDS011;45224;50.904;6.038;2023-07-31T06:16:27;5.85;;;2.22;;
59418;SDS011;45224;50.904;6.038;2023-07-31T06:17:57;5.93;;;2.05;;
59418;SDS011;45224;50.904;6.038;2023-07-31T06:19:29;5.13;;;2.05;;
59418;SDS011;45224;50.904;6.038;2023-07-31T06:20:59;5.93;;;2.55;;
59418;SDS011;45224;50.904;6.038;2023-07-31T06:22:30;5.20;;;2.10;;
59418;SDS011;45224;50.904;6.038;2023-07-31T06:24:05;5.57;;;2.08;;
59418;SDS011;45224;50.904;6.038;2023-07-31T06:25:35;6.50;;;2.30;;
59418;SDS011;45224;50.904;6.038;2023-07-31T06:27:06;5.13;;;2.03;;
59418;SDS011;45224;50.904;6.038;2023-07-31T06:28:37;8.73;;;2.40;;
59418;SDS011;45224;50.904;6.038;2023-07-31T06:30:07;5.65;;;2.20;;
59418;SDS011;45224;50.904;6.038;2023-07-31T06:31:38;4.53;;;2.20;;
59418;SDS011;45224;50.904;6.038;2023-07-31T06:33:08;4.25;;;2.33;;
59418;SDS011;45224;50.904;6.038;2023-07-31T06:34:39;8.00;;;2.05;;
59418;SDS011;45224;50.904;6.038;2023-07-31T06:36:09;4.75;;;2.15;;
59418;SDS011;45224;50.904;6.038;2023-07-31T06:37:41;4.95;;;2.00;;
59418;SDS011;45224;50.904;6.038;2023-07-31T06:39:14;4.68;;;1.60;;
59418;SDS011;45224;50.904;6.038;2023-07-31T06:40:44;4.32;;;1.83;;
59418;SDS011;45224;50.904;6.038;2023-07-31T06:42:14;5.45;;;2.00;;
59418;SDS011;45224;50.904;6.038;2023-07-31T06:43:45;4.90;;;2.03;;
59418;SDS011;45224;50.904;6.038;2023-07-31T06:45:16;6.22;;;2.08;;
59418;SDS011;45224;50.904;6.038;2023-07-31T06:46:47;5.00;;;1.75;;
59418;SDS011;45224;50.904;6.038;2023-07-31T06:48:17;4.88;;;1.73;;
59418;SDS011;45224;50.904;6.038;2023-07-31T06:49:48;5.03;;;2.08;;
59418;SDS011;45224;50.904;6.038;2023-07-31T06:51:18;8.23;;;2.20;;
59418;SDS011;45224;50.904;6.038;2023-07-31T06:52:49;5.45;;;2.00;;
59418;SDS011;45224;50.904;6.038;2023-07-31T06:54:19;4.22;;;2.00;;
59418;SDS011;45224;50.904;6.038;2023-07-31T06:55:49;4.95;;;2.15;;
59418;SDS011;45224;50.904;6.038;2023-07-31T06:57:22;4.05;;;1.85;;
59418;SDS011;45224;50.904;6.038;2023-07-31T06:58:52;7.38;;;2.35;;
59418;SDS011;45224;50.904;6.038;2023-07-31T07:00:22;4.93;;;2.55;;
59418;SDS011;45224;50.904;6.038;2023-07-31T07:01:53;4.65;;;2.00;;
59418;SDS011;45224;50.904;6.038;2023-07-31T07:03:24;4.47;;;2.22;;
59418;SDS011;45224;50.904;6.038;2023-07-31T07:04:55;6.97;;;2.28;;
59418;SDS011;45224;50.904;6.038;2023-07-31T07:06:26;5.78;;;2.13;;
59418;SDS011;45224;50.904;6.038;2023-07-31T07:07:59;7.45;;;1.92;;
59418;SDS011;45224;50.904;6.038;2023-07-31T07:09:30;8.20;;;2.42;;
59418;SDS011;45224;50.904;6.038;2023-07-31T07:11:00;7.00;;;2.25;;
59418;SDS011;45224;50.904;6.038;2023-07-31T07:12:31;4.75;;;1.92;;
59418;SDS011;45224;50.904;6.038;2023-07-31T07:14:02;5.50;;;2.00;;
59418;SDS011;45224;50.904;6.038;2023-07-31T07:15:33;5.72;;;2.30;;
59418;SDS011;45224;50.904;6.038;2023-07-31T07:17:04;5.47;;;2.22;;
59418;SDS011;45224;50.904;6.038;2023-07-31T07:18:34;5.20;;;2.70;;
59418;SDS011;45224;50.904;6.038;2023-07-31T07:20:05;6.15;;;2.38;;
59418;SDS011;45224;50.904;6.038;2023-07-31T07:21:36;5.18;;;1.90;;
59418;SDS011;45224;50.904;6.038;2023-07-31T07:23:06;5.82;;;2.30;;
59418;SDS011;45224;50.904;6.038;2023-07-31T07:24:37;4.93;;;2.13;;
59418;SDS011;45224;50.904;6.038;2023-07-31T07:26:07;4.07;;;2.13;;
59418;SDS011;45224;50.904;6.038;2023-07-31T07:27:38;3.08;;;1.63;;
59418;SDS011;45224;50.904;6.038;2023-07-31T07:29:09;5.20;;;1.90;;
59418;SDS011;45224;50.904;6.038;2023-07-31T07:30:41;5.25;;;2.08;;
59418;SDS011;45224;50.904;6.038;2023-07-31T07:32:12;5.50;;;2.45;;
59418;SDS011;45224;50.904;6.038;2023-07-31T07:33:43;4.97;;;2.33;;
59418;SDS011;45224;50.904;6.038;2023-07-31T07:35:13;6.82;;;2.17;;
59418;SDS011;45224;50.904;6.038;2023-07-31T07:36:44;5.22;;;2.30;;
59418;SDS011;45224;50.904;6.038;2023-07-31T07:38:14;7.07;;;2.22;;
59418;SDS011;45224;50.904;6.038;2023-07-31T07:39:49;4.97;;;1.90;;
59418;SDS011;45224;50.904;6.038;2023-07-31T07:41:19;4.68;;;2.08;;
59418;SDS011;45224;50.904;6.038;2023-07-31T07:42:50;5.38;;;1.98;;
59418;SDS011;45224;50.904;6.038;2023-07-31T07:44:20;6.65;;;2.28;;
59418;SDS011;45224;50.904;6.038;2023-07-31T07:45:51;6.43;;;2.38;;
59418;SDS011;45224;50.904;6.038;2023-07-31T07:47:21;6.60;;;2.70;;
59418;SDS011;45224;50.904;6.038;2023-07-31T07:48:52;3.92;;;2.10;;
59418;SDS011;45224;50.904;6.038;2023-07-31T07:50:22;7.32;;;2.28;;
59418;SDS011;45224;50.904;6.038;2023-07-31T07:51:53;6.97;;;2.63;;
59418;SDS011;45224;50.904;6.038;2023-07-31T07:53:23;4.05;;;2.42;;
59418;SDS011;45224;50.904;6.038;2023-07-31T07:54:54;3.90;;;1.80;;
59418;SDS011;45224;50.904;6.038;2023-07-31T07:56:25;4.88;;;2.40;;
59418;SDS011;45224;50.904;6.038;2023-07-31T07:57:57;10.75;;;2.55;;
59418;SDS011;45224;50.904;6.038;2023-07-31T07:59:27;7.07;;;3.10;;
59418;SDS011;45224;50.904;6.038;2023-07-31T08:00:58;4.18;;;2.28;;
59418;SDS011;45224;50.904;6.038;2023-07-31T08:02:28;6.30;;;2.30;;
59418;SDS011;45224;50.904;6.038;2023-07-31T08:03:59;2.58;;;1.80;;
59418;SDS011;45224;50.904;6.038;2023-07-31T08:05:30;3.63;;;2.13;;
59418;SDS011;45224;50.904;6.038;2023-07-31T08:07:04;5.18;;;2.33;;
59418;SDS011;45224;50.904;6.038;2023-07-31T08:08:38;6.18;;;2.40;;
59418;SDS011;45224;50.904;6.038;2023-07-31T08:10:09;4.68;;;2.22;;
59418;SDS011;45224;50.904;6.038;2023-07-31T08:11:39;8.35;;;2.50;;
59418;SDS011;45224;50.904;6.038;2023-07-31T08:13:11;4.22;;;2.35;;
59418;SDS011;45224;50.904;6.038;2023-07-31T08:14:42;5.75;;;2.00;;
59418;SDS011;45224;50.904;6.038;2023-07-31T08:16:12;4.20;;;2.25;;
59418;SDS011;45224;50.904;6.038;2023-07-31T08:17:43;5.43;;;2.10;;
59418;SDS011;45224;50.904;6.038;2023-07-31T08:19:13;6.28;;;2.22;;
59418;SDS011;45224;50.904;6.038;2023-07-31T08:20:44;4.80;;;2.33;;
59418;SDS011;45224;50.904;6.038;2023-07-31T08:22:15;4.05;;;2.22;;
59418;SDS011;45224;50.904;6.038;2023-07-31T08:23:45;3.33;;;2.13;;
59418;SDS011;45224;50.904;6.038;2023-07-31T08:25:15;6.20;;;2.40;;
59418;SDS011;45224;50.904;6.038;2023-07-31T08:26:46;4.40;;;2.17;;
59418;SDS011;45224;50.904;6.038;2023-07-31T08:28:17;3.28;;;1.80;;
59418;SDS011;45224;50.904;6.038;2023-07-31T08:29:47;4.65;;;2.50;;
59418;SDS011;45224;50.904;6.038;2023-07-31T08:31:18;4.57;;;1.90;;
59418;SDS011;45224;50.904;6.038;2023-07-31T08:32:49;4.43;;;1.90;;
59418;SDS011;45224;50.904;6.038;2023-07-31T08:34:20;5.65;;;2.20;;
59418;SDS011;45224;50.904;6.038;2023-07-31T08:35:50;4.78;;;1.92;;
59418;SDS011;45224;50.904;6.038;2023-07-31T08:37:20;6.18;;;2.10;;
59418;SDS011;45224;50.904;6.038;2023-07-31T08:38:51;5.13;;;2.28;;
59418;SDS011;45224;50.904;6.038;2023-07-31T08:40:21;7.70;;;1.92;;
59418;SDS011;45224;50.904;6.038;2023-07-31T08:41:57;6.43;;;2.25;;
59418;SDS011;45224;50.904;6.038;2023-07-31T08:43:28;5.25;;;2.15;;
59418;SDS011;45224;50.904;6.038;2023-07-31T08:44:59;4.78;;;2.22;;
59418;SDS011;45224;50.904;6.038;2023-07-31T08:46:31;4.05;;;2.10;;
59418;SDS011;45224;50.904;6.038;2023-07-31T08:48:03;3.78;;;2.15;;
59418;SDS011;45224;50.904;6.038;2023-07-31T08:49:33;4.30;;;2.00;;
59418;SDS011;45224;50.904;6.038;2023-07-31T08:51:05;4.45;;;2.13;;
59418;SDS011;45224;50.904;6.038;2023-07-31T08:52:36;4.95;;;2.08;;
59418;SDS011;45224;50.904;6.038;2023-07-31T08:54:06;3.97;;;2.13;;
59418;SDS011;45224;50.904;6.038;2023-07-31T08:55:37;5.78;;;2.08;;
59418;SDS011;45224;50.904;6.038;2023-07-31T08:57:08;5.05;;;2.50;;
59418;SDS011;45224;50.904;6.038;2023-07-31T08:58:41;5.43;;;1.92;;
59418;SDS011;45224;50.904;6.038;2023-07-31T09:00:13;5.00;;;2.10;;
59418;SDS011;45224;50.904;6.038;2023-07-31T09:01:46;4.43;;;2.05;;
59418;SDS011;45224;50.904;6.038;2023-07-31T09:03:20;5.47;;;2.35;;
59418;SDS011;45224;50.904;6.038;2023-07-31T09:04:53;5.72;;;2.10;;
59418;SDS011;45224;50.904;6.038;2023-07-31T09:06:23;3.97;;;2.00;;
59418;SDS011;45224;50.904;6.038;2023-07-31T09:07:56;7.55;;;2.60;;
59418;SDS011;45224;50.904;6.038;2023-07-31T09:09:27;6.07;;;2.40;;
59418;SDS011;45224;50.904;6.038;2023-07-31T09:11:00;7.60;;;2.83;;
59418;SDS011;45224;50.904;6.038;2023-07-31T09:12:35;4.60;;;2.20;;
59418;SDS011;45224;50.904;6.038;2023-07-31T09:14:07;7.63;;;2.22;;
59418;SDS011;45224;50.904;6.038;2023-07-31T09:15:39;5.70;;;2.30;;
59418;SDS011;45224;50.904;6.038;2023-07-31T09:17:10;5.10;;;2.05;;